Interpublic Group of Companies Institutional Ownership (NYSE:IPG)

$21.16
-0.16 (-0.75 %)
(As of 09/20/2019 04:00 PM ET)
Today's Range
$21.0750
Now: $21.16
$21.42
50-Day Range
$19.60
MA: $20.70
$22.35
52-Week Range
$19.56
Now: $21.16
$25.10
Volume4.16 million shs
Average Volume2.93 million shs
Market Capitalization$8.19 billion
P/E Ratio11.05
Dividend Yield4.39%
Beta1.12

Institutional Ownership

Institutional Ownership Changes (13F Filings) for Interpublic Group of Companies (NYSE:IPG)

Institutional Ownership Percentage: 98.00%

Interpublic Group of Companies (NYSE IPG) Institutional Buying and Selling

Reporting DateHedge FundShares HeldMarket Value% of PortfolioQuarterly Change in SharesOwnership in Company
9/6/2019BRITISH COLUMBIA INVESTMENT MANAGEMENT Corp81,780$1.85M0.0%-27.9%0.021%
9/3/2019Stonehage Fleming Financial Services Holdings Ltd7,320$0.17M0.0%N/A0.002%
8/29/2019Hancock Whitney Corp48,510$1.10M0.0%+14.7%0.013%
8/26/2019Boston Partners4,573,260$103.34M0.1%-13.7%1.181%
8/26/2019Toronto Dominion Bank273,815$6.18M0.0%-7.6%0.071%
8/26/2019Atria Investments LLC56,626$1.16M0.0%N/A0.015%
8/23/2019American International Group Inc.731,363$16.52M0.1%-0.6%0.189%
8/23/2019Treasurer of the State of North Carolina192,487$4.35M0.0%+0.4%0.050%
8/23/2019BlackRock Inc.53,006,472$1.20B0.1%+4.8%13.689%
8/22/2019Natixis226,521$5.12M0.0%-30.2%0.058%
8/20/2019Barings LLC37,255$0.84M0.0%-69.7%0.010%
8/19/2019WealthPLAN Partners LLC23,589$0.49M0.1%-7.5%0.006%
8/17/2019Royal Bank of Canada718,645$16.23M0.0%+54.6%0.186%
8/17/2019Ladenburg Thalmann Financial Services Inc.29,477$0.67M0.0%+34.7%0.008%
8/17/2019Private Capital Group LLC1,110$26K0.0%+112.2%0.000%
8/16/2019Amundi Pioneer Asset Management Inc.5,889,751$1.10B0.9%-37.8%1.521%
8/16/2019United Services Automobile Association327,976$7.41M0.0%+2.2%0.085%
8/15/2019California Public Employees Retirement System765,549$17.29M0.0%-19.0%0.198%
8/15/2019Cambridge Investment Research Advisors Inc.182,560$4.12M0.0%+10.0%0.047%
8/15/2019Worldquant Millennium Advisors LLC499,593$11.29M0.2%+18.4%0.129%
8/15/2019Zacks Investment Management60,209$1.36M0.0%N/A0.016%
8/15/2019Pictet Asset Management Ltd.261,155$5.90M0.0%-4.8%0.067%
8/15/2019Green Square Asset Management LLC84,080$1.90M1.0%-63.6%0.022%
8/15/2019Nuveen Asset Management LLC3,674,729$83.01M0.0%+31,611.5%0.949%
8/15/2019Peapack Gladstone Financial Corp109,373$2.47M0.1%+27.2%0.028%
8/15/2019Andra AP fonden272,200$6.15M0.2%+5.0%0.070%
8/15/2019Price T Rowe Associates Inc. MD846,907$19.13M0.0%-1.8%0.219%
8/15/2019Victory Capital Management Inc.6,520,623$147.30M0.3%+12.4%1.684%
8/15/2019UBS Asset Management Americas Inc.1,363,463$30.80M0.0%-10.6%0.352%
8/15/2019CSat Investment Advisory L.P.2,269$51K0.0%+49.7%0.001%
8/15/2019Jane Street Group LLC109,959$2.48M0.0%+87.3%0.028%
8/14/2019D. E. Shaw & Co. Inc.426,742$9.64M0.0%+579.2%0.110%
8/14/2019Cubist Systematic Strategies LLC512,986$11.59M0.2%+35.5%0.132%
8/14/2019Jefferies Group LLC20,314$0.46M0.0%-93.7%0.005%
8/14/2019California State Teachers Retirement System674,220$15.23M0.0%-2.1%0.174%
8/14/2019Marshall Wace LLP118,862$2.69M0.0%-61.5%0.031%
8/14/2019Morgan Stanley1,236,751$27.94M0.0%+22.7%0.319%
8/14/2019Alberta Investment Management Corp22,200$0.50M0.0%-35.8%0.006%
8/14/2019AQR Capital Management LLC1,497,492$33.83M0.0%+70.7%0.387%
8/14/2019Paloma Partners Management Co99,813$2.26M0.0%+3.9%0.026%
8/14/2019Man Group plc81,364$1.84M0.0%+39.7%0.021%
8/14/2019Bank of America Corp DE2,443,651$55.20M0.0%+3.7%0.631%
8/14/2019HBK Investments L P19,477$0.44M0.0%-94.8%0.005%
8/14/2019Marshall Wace North America L.P.20,921$0.47M0.0%-8.3%0.005%
8/14/2019Balyasny Asset Management LLC536,468$12.12M0.1%+1,293.5%0.139%
8/14/2019Assetmark Inc.531,241$12M0.1%+9.5%0.137%
8/14/2019Putnam Investments LLC378,326$8.55M0.0%N/A0.098%
8/14/2019Invesco Ltd.5,083,891$114.84M0.0%+6.3%1.313%
8/14/2019Vanguard Group Inc.43,040,858$972.29M0.0%+1.9%11.115%
8/14/2019Sterling Capital Management LLC112,000$2.53M0.0%N/A0.029%
8/14/2019SRB Corp21,603$0.49M0.0%N/A0.006%
8/14/2019A.R.T. Advisors LLC119,033$2.69M0.2%N/A0.031%
8/14/2019Holocene Advisors LP16,468$0.37M0.0%N/A0.004%
8/14/2019National Pension Service15,440$0.35M0.0%N/A0.004%
8/14/2019Rampart Investment Management Company LLC104,357$2.36M0.3%+283.3%0.027%
8/14/2019Asset Management One Co. Ltd.213,811$4.83M0.0%+8.3%0.055%
8/13/2019NumerixS Investment Technologies Inc9,800$0.22M0.1%-92.7%0.003%
8/13/2019O Shares Investment Advisers LLC18,624$0.42M0.1%+6.2%0.005%
8/13/2019Tower Research Capital LLC TRC 9,684$0.22M0.0%-49.5%0.003%
8/13/2019BlackRock Inc.53,006,472$1.20B0.1%+4.8%13.689%
8/13/2019Nomura Asset Management Co. Ltd.72,006$1.63M0.0%-1.9%0.019%
8/13/2019US Bancorp DE21,080$0.48M0.0%-27.8%0.005%
8/13/2019Sontag Advisory LLC10,714$0.24M0.0%N/A0.003%
8/13/2019HighTower Advisors LLC189,724$4.29M0.0%+780.3%0.049%
8/13/2019AXA583,529$13.18M0.1%+261.9%0.151%
8/13/2019United Capital Financial Advisers LLC43,056$0.97M0.0%+9.5%0.011%
8/13/2019Profund Advisors LLC17,241$0.39M0.0%+70.6%0.004%
8/13/2019Bank of Nova Scotia345,370$7.80M0.0%-7.0%0.089%
8/13/2019Signet Financial Management LLC41,630$0.96M0.2%N/A0.011%
8/13/2019APG Asset Management N.V.243,295$4.83M0.0%+129.5%0.063%
8/13/2019Parametric Portfolio Associates LLC1,965,824$44.41M0.0%+4.9%0.508%
8/13/2019Grantham Mayo Van Otterloo & Co. LLC226,900$5.13M0.0%-10.4%0.059%
8/13/2019MML Investors Services LLC9,741$0.22M0.0%N/A0.003%
8/13/2019Toronto Dominion Bank273,815$6.18M0.0%-7.6%0.071%
8/13/2019Fiduciary Management Inc. WI4,872,268$110.07M0.7%-1.1%1.258%
8/13/2019Natixis226,521$5.12M0.0%-30.2%0.058%
8/13/2019Ossiam7,498$0.17M0.0%N/A0.002%
8/13/2019Seeyond85,996$1.94M0.2%-7.6%0.022%
8/13/2019Pictet Asset Management Ltd.261,155$5.90M0.0%-4.8%0.067%
8/13/2019Cibc World Markets Corp444,821$10.05M0.1%+19.5%0.115%
8/13/2019Glen Harbor Capital Management LLC41,824$0.95M0.0%+45.0%0.011%
8/13/2019Commonwealth Bank of Australia66,366$1.50M0.0%-2.5%0.017%
8/13/2019Tyers Asset Management LLC57,508$1.30M0.0%+45.0%0.015%
8/13/2019Flinton Capital Management LLC73,192$1.65M0.1%+45.0%0.019%
8/13/2019Brandes Investment Partners LP82,549$1.87M0.0%-1.3%0.021%
8/13/2019Northern Trust Corp5,150,120$116.34M0.0%-4.1%1.330%
8/13/2019Neuburgh Advisers LLC88,876$2.01M0.1%+45.0%0.023%
8/12/2019Public Employees Retirement System of Ohio128,926$2.91M0.0%-25.7%0.033%
8/12/2019GAM Holding AG31,850$0.72M0.0%-20.7%0.008%
8/12/2019Tiverton Asset Management LLC12,700$0.29M0.0%+180.7%0.003%
8/12/2019Brown Advisory Inc.38,056$0.86M0.0%-9.6%0.010%
8/12/2019Riverhead Capital Management LLC44,010$0.99M0.0%+41.9%0.011%
8/12/2019Pacer Advisors Inc.124,558$2.81M0.1%+288.7%0.032%
8/12/2019Cadence Capital Management LLC168,476$3.81M0.4%+251.1%0.044%
8/12/2019Renaissance Technologies LLC2,835,500$64.05M0.1%-38.0%0.732%
8/12/2019Veritable L.P.203,655$4.60M0.1%-14.1%0.053%
8/12/2019Bank of New York Mellon Corp5,072,007$114.58M0.0%-12.8%1.310%
8/12/2019Intrust Bank NA15,804$0.36M0.1%+32.4%0.004%
8/12/2019Quantamental Technologies LLC30,178$0.68M0.3%N/A0.008%
8/12/2019Korea Investment CORP838,247$18.94M0.1%+56.9%0.216%
(Data available from 1/1/2016 forward)
This page was last updated on 9/21/2019 by MarketBeat.com Staff

Enter your email address below to receive a concise daily summary of analysts' upgrades, downgrades and new coverage with MarketBeat.com's FREE daily email newsletter.

Yahoo Gemini Pixel